createdAt,value
2023-05-18T00:01:06.067Z,7.68
2023-05-18T00:03:39.691Z,7.56
2023-05-18T00:06:13.939Z,7.53
2023-05-18T00:08:47.188Z,7.43
2023-05-18T00:11:21.711Z,7.42
2023-05-18T00:13:55.007Z,7.35
2023-05-18T00:16:28.382Z,7.33
2023-05-18T00:19:02.609Z,7.38
2023-05-18T00:21:36.337Z,7.29
2023-05-18T00:24:11.813Z,7.24
2023-05-18T00:26:46.502Z,7.21
2023-05-18T00:29:20.350Z,7.23
2023-05-18T00:31:53.721Z,7.23
2023-05-18T00:34:27.324Z,7.25
2023-05-18T00:37:00.816Z,7.10
2023-05-18T00:39:34.264Z,7.09
2023-05-18T00:42:08.591Z,7.07
2023-05-18T00:44:41.910Z,7.00
2023-05-18T00:47:15.759Z,6.97
2023-05-18T00:49:49.103Z,6.87
2023-05-18T00:52:23.721Z,6.87
2023-05-18T00:54:59.756Z,6.77
2023-05-18T00:57:33.546Z,6.77
2023-05-18T01:00:10.878Z,6.65
2023-05-18T01:02:46.362Z,6.66
2023-05-18T01:05:22.270Z,6.63
2023-05-18T01:07:57.947Z,6.59
2023-05-18T01:10:34.119Z,6.61
2023-05-18T01:13:16.516Z,6.46
2023-05-18T01:15:58.216Z,6.51
2023-05-18T01:18:39.233Z,6.46
2023-05-18T01:21:31.508Z,6.37
2023-05-18T01:24:26.470Z,6.35
2023-05-18T01:27:04.381Z,6.36
2023-05-18T01:29:39.720Z,6.31
2023-05-18T01:32:21.392Z,6.34
2023-05-18T01:34:54.922Z,6.34
2023-05-18T01:37:28.237Z,6.26
2023-05-18T01:40:01.710Z,6.30
2023-05-18T01:42:40.717Z,6.12
2023-05-18T01:45:29.017Z,6.08
2023-05-18T01:48:05.470Z,5.95
2023-05-18T01:50:48.988Z,5.99
2023-05-18T01:53:32.282Z,6.00
2023-05-18T01:56:09.860Z,5.99
2023-05-18T01:58:44.406Z,5.90
2023-05-18T02:01:20.191Z,5.95
2023-05-18T02:03:53.953Z,5.86
2023-05-18T02:06:28.201Z,5.74
2023-05-18T02:09:01.525Z,5.80
2023-05-18T02:11:34.843Z,5.78
2023-05-18T02:14:07.984Z,5.76
2023-05-18T02:16:41.440Z,5.68
2023-05-18T02:19:15.885Z,5.72
2023-05-18T02:21:49.410Z,5.65
2023-05-18T02:24:23.133Z,5.68
2023-05-18T02:26:56.560Z,5.67
2023-05-18T02:29:30.988Z,5.60
2023-05-18T02:32:04.976Z,5.60
2023-05-18T02:34:42.049Z,5.48
2023-05-18T02:37:15.737Z,5.46
2023-05-18T02:39:49.340Z,5.53
2023-05-18T02:42:22.576Z,5.46
2023-05-18T02:44:56.260Z,5.40
2023-05-18T02:47:29.677Z,5.34
2023-05-18T02:50:03.457Z,5.36
2023-05-18T02:52:37.042Z,5.40
2023-05-18T02:55:13.642Z,5.30
2023-05-18T02:57:48.115Z,5.24
2023-05-18T03:00:23.937Z,5.32
2023-05-18T03:03:00.359Z,5.32
2023-05-18T03:05:33.969Z,5.28
2023-05-18T03:08:07.519Z,5.27
2023-05-18T03:10:41.072Z,5.23
2023-05-18T03:13:14.509Z,5.11
2023-05-18T03:15:47.994Z,5.16
2023-05-18T03:18:21.594Z,5.07
2023-05-18T03:20:54.915Z,5.12
2023-05-18T03:23:28.213Z,5.08
2023-05-18T03:26:03.778Z,5.09
2023-05-18T03:28:37.227Z,5.04
2023-05-18T03:31:11.083Z,5.01
2023-05-18T03:33:44.704Z,5.02
2023-05-18T03:36:17.997Z,5.00
2023-05-18T03:38:51.321Z,4.93
2023-05-18T03:41:24.695Z,4.96
2023-05-18T03:43:58.208Z,4.91
2023-05-18T03:46:31.643Z,4.85
2023-05-18T03:49:07.793Z,4.89
2023-05-18T03:51:41.752Z,4.90
2023-05-18T03:54:15.448Z,4.91
2023-05-18T03:56:49.292Z,4.79
2023-05-18T03:59:22.842Z,4.76
2023-05-18T04:01:56.172Z,4.81
2023-05-18T04:04:31.044Z,4.77
2023-05-18T04:07:06.149Z,4.72
2023-05-18T04:09:40.642Z,4.69
2023-05-18T04:12:15.089Z,4.76
2023-05-18T04:14:49.546Z,4.77
2023-05-18T04:17:26.205Z,4.79
2023-05-18T04:19:59.801Z,4.85
2023-05-18T04:22:33.288Z,4.89
2023-05-18T04:25:07.807Z,4.93
2023-05-18T04:27:41.773Z,4.98
2023-05-18T04:30:18.752Z,4.99
2023-05-18T04:32:54.789Z,4.98
2023-05-18T04:35:28.688Z,4.92
2023-05-18T04:38:02.596Z,4.89
2023-05-18T04:40:38.086Z,4.88
2023-05-18T04:43:11.912Z,4.85
2023-05-18T04:45:46.435Z,4.90
2023-05-18T04:48:20.042Z,4.94
2023-05-18T04:50:54.462Z,4.95
2023-05-18T04:53:28.507Z,4.98
2023-05-18T04:56:03.232Z,5.04
2023-05-18T04:58:37.681Z,5.02
2023-05-18T05:01:11.322Z,4.97
2023-05-18T05:03:45.098Z,4.98
2023-05-18T05:06:18.885Z,4.96
2023-05-18T05:08:52.506Z,4.93
2023-05-18T05:11:26.116Z,4.93
2023-05-18T05:13:59.813Z,4.98
2023-05-18T05:16:33.373Z,5.00
2023-05-18T05:19:07.250Z,5.05
2023-05-18T05:21:41.560Z,5.06
2023-05-18T05:24:15.114Z,5.09
2023-05-18T05:26:48.822Z,5.10
2023-05-18T05:29:22.533Z,5.14
2023-05-18T05:31:56.299Z,5.15
2023-05-18T05:34:29.700Z,5.20
2023-05-18T05:37:03.385Z,5.26
2023-05-18T05:39:37.375Z,5.31
2023-05-18T05:42:12.109Z,5.36
2023-05-18T05:44:45.976Z,5.37
2023-05-18T05:47:19.642Z,5.44
2023-05-18T05:49:53.188Z,5.49
2023-05-18T05:52:28.701Z,5.53
2023-05-18T05:55:02.454Z,5.58
2023-05-18T05:57:36.176Z,5.63
2023-05-18T06:00:14.279Z,5.70
2023-05-18T06:02:48.099Z,5.76
2023-05-18T06:05:21.431Z,5.81
2023-05-18T06:07:55.418Z,5.87
2023-05-18T06:10:29.261Z,5.92
2023-05-18T06:13:03.033Z,6.00
2023-05-18T06:15:37.226Z,6.08
2023-05-18T06:18:13.765Z,6.16
2023-05-18T06:20:47.317Z,6.25
2023-05-18T06:23:22.809Z,6.32
2023-05-18T06:25:56.675Z,6.37
2023-05-18T06:28:30.380Z,6.48
2023-05-18T06:31:03.880Z,6.55
2023-05-18T06:33:38.509Z,6.62
2023-05-18T06:36:12.181Z,6.68
2023-05-18T06:38:45.453Z,6.73
2023-05-18T06:41:18.914Z,6.87
2023-05-18T06:43:52.277Z,6.95
2023-05-18T06:46:26.568Z,7.03
2023-05-18T06:48:59.968Z,7.13
2023-05-18T06:51:33.174Z,7.15
2023-05-18T06:54:06.795Z,7.24
2023-05-18T06:56:40.233Z,7.27
2023-05-18T06:59:13.744Z,7.34
2023-05-18T07:01:47.357Z,7.48
2023-05-18T07:04:20.887Z,7.50
2023-05-18T07:06:55.840Z,7.64
2023-05-18T07:09:29.694Z,7.65
2023-05-18T07:12:03.488Z,7.70
2023-05-18T07:14:36.884Z,7.77
2023-05-18T07:17:10.724Z,7.80
2023-05-18T07:19:44.024Z,7.89
2023-05-18T07:22:17.328Z,7.98
2023-05-18T07:24:50.900Z,8.02
2023-05-18T07:27:24.327Z,8.15
2023-05-18T07:29:57.803Z,8.27
2023-05-18T07:32:31.122Z,8.28
2023-05-18T07:35:04.870Z,8.36
2023-05-18T07:37:38.814Z,8.50
2023-05-18T07:40:15.107Z,8.58
2023-05-18T07:42:48.454Z,8.69
2023-05-18T07:45:22.006Z,8.78
2023-05-18T07:47:55.664Z,8.81
2023-05-18T07:50:29.836Z,8.81
2023-05-18T07:53:02.909Z,8.89
2023-05-18T07:55:36.203Z,8.89
2023-05-18T07:58:09.589Z,8.96
2023-05-18T08:00:44.319Z,9.04
2023-05-18T08:03:18.092Z,9.18
2023-05-18T08:05:51.369Z,9.34
2023-05-18T08:08:24.481Z,9.42
2023-05-18T08:10:57.813Z,9.47
2023-05-18T08:13:33.318Z,9.54
2023-05-18T08:16:12.116Z,9.64
2023-05-18T08:18:46.219Z,9.76
2023-05-18T08:21:19.869Z,9.83
2023-05-18T08:23:53.036Z,9.84
2023-05-18T08:26:27.338Z,9.93
2023-05-18T08:29:00.622Z,10.04
2023-05-18T08:31:33.922Z,10.12
2023-05-18T08:34:08.399Z,10.24
2023-05-18T08:36:45.519Z,10.22
2023-05-18T08:39:18.569Z,10.17
2023-05-18T08:42:02.583Z,10.15
2023-05-18T08:44:51.198Z,10.26
2023-05-18T08:47:27.890Z,10.41
2023-05-18T08:50:03.278Z,10.48
2023-05-18T08:52:48.369Z,10.51
2023-05-18T08:55:23.988Z,10.79
2023-05-18T08:58:03.415Z,10.84
2023-05-18T09:00:38.596Z,11.08
2023-05-18T09:03:12.388Z,11.12
2023-05-18T09:05:47.230Z,11.19
2023-05-18T09:08:21.586Z,11.22
2023-05-18T09:10:57.837Z,11.18
2023-05-18T09:13:32.209Z,11.24
2023-05-18T09:16:05.613Z,11.27
2023-05-18T09:18:39.259Z,11.29
2023-05-18T09:21:13.121Z,11.27
2023-05-18T09:23:48.393Z,11.29
2023-05-18T09:26:22.510Z,11.33
2023-05-18T09:28:59.563Z,11.31
2023-05-18T09:31:36.038Z,11.44
2023-05-18T09:34:09.784Z,11.61
2023-05-18T09:36:46.581Z,11.67
2023-05-18T09:39:20.300Z,11.83
2023-05-18T09:42:00.147Z,12.00
2023-05-18T09:44:38.200Z,12.10
2023-05-18T09:47:14.601Z,12.26
2023-05-18T09:49:48.781Z,12.27
2023-05-18T09:52:22.425Z,12.33
2023-05-18T09:55:06.070Z,12.47
2023-05-18T09:57:45.821Z,12.61
2023-05-18T10:00:24.874Z,12.67
2023-05-18T10:03:01.045Z,12.83
2023-05-18T10:05:36.297Z,13.04
2023-05-18T10:08:13.025Z,13.13
2023-05-18T10:10:50.280Z,13.12
2023-05-18T10:13:26.947Z,12.99
2023-05-18T10:16:03.868Z,13.12
2023-05-18T10:18:41.656Z,13.28
2023-05-18T10:21:18.306Z,13.22
2023-05-18T10:23:54.405Z,13.36
2023-05-18T10:26:32.192Z,13.40
2023-05-18T10:29:05.818Z,13.63
2023-05-18T10:31:42.508Z,13.77
2023-05-18T10:34:18.532Z,13.98
2023-05-18T10:36:52.370Z,14.03
2023-05-18T10:39:27.200Z,14.10
2023-05-18T10:42:06.022Z,14.13
2023-05-18T10:44:41.630Z,14.18
2023-05-18T10:47:17.761Z,14.15
2023-05-18T10:49:52.832Z,14.32
2023-05-18T10:52:31.695Z,14.44
2023-05-18T10:55:06.021Z,14.60
2023-05-18T10:57:45.956Z,14.69
2023-05-18T11:00:21.719Z,14.67
2023-05-18T11:02:56.618Z,14.77
2023-05-18T11:05:34.473Z,14.87
2023-05-18T11:08:09.295Z,14.89
2023-05-18T11:10:47.253Z,14.88
2023-05-18T11:13:28.986Z,14.83
2023-05-18T11:16:12.136Z,14.94
2023-05-18T11:18:50.347Z,15.12
2023-05-18T11:21:49.096Z,15.09
2023-05-18T11:24:36.451Z,15.01
2023-05-18T11:27:19.591Z,15.10
2023-05-18T11:30:03.822Z,15.00
2023-05-18T11:32:41.419Z,15.28
2023-05-18T11:35:29.345Z,15.24
2023-05-18T11:38:12.644Z,15.24
2023-05-18T11:40:54.368Z,15.38
2023-05-18T11:43:30.226Z,15.68
2023-05-18T11:46:04.268Z,15.80
2023-05-18T11:48:45.158Z,15.84
2023-05-18T11:51:19.255Z,15.94
2023-05-18T11:53:54.773Z,15.30
2023-05-18T11:56:33.378Z,15.28
2023-05-18T11:59:30.325Z,15.45
2023-05-18T12:02:07.319Z,15.96
2023-05-18T12:04:46.595Z,16.17
2023-05-18T12:07:22.071Z,16.06
2023-05-18T12:09:58.489Z,16.18
2023-05-18T12:12:34.075Z,16.11
2023-05-18T12:15:11.857Z,16.09
2023-05-18T12:17:47.313Z,16.43
2023-05-18T12:20:25.029Z,16.71
2023-05-18T12:23:01.133Z,16.67
2023-05-18T12:25:35.393Z,16.68
2023-05-18T12:28:09.304Z,16.82
2023-05-18T12:30:43.989Z,16.96
2023-05-18T12:33:17.598Z,17.07
2023-05-18T12:35:51.000Z,16.87
2023-05-18T12:38:28.905Z,17.15
2023-05-18T12:41:02.207Z,16.74
2023-05-18T12:43:40.630Z,16.35
2023-05-18T12:46:14.975Z,16.38
2023-05-18T12:49:01.416Z,16.68
2023-05-18T12:51:40.382Z,17.10
2023-05-18T12:54:14.045Z,17.40
2023-05-18T12:57:02.031Z,17.63
2023-05-18T12:59:35.934Z,17.51
2023-05-18T13:02:10.371Z,17.77
2023-05-18T13:04:43.913Z,17.85
2023-05-18T13:07:24.633Z,18.15
2023-05-18T13:10:06.137Z,18.24
2023-05-18T13:12:46.282Z,18.27
2023-05-18T13:15:23.213Z,18.36
2023-05-18T13:18:12.097Z,18.33
2023-05-18T13:20:51.780Z,18.63
2023-05-18T13:23:27.972Z,18.86
2023-05-18T13:26:01.818Z,18.91
2023-05-18T13:28:35.803Z,18.82
2023-05-18T13:31:10.923Z,19.01
2023-05-18T13:33:45.990Z,18.87
2023-05-18T13:36:19.857Z,19.22
2023-05-18T13:38:54.094Z,18.96
2023-05-18T13:41:27.373Z,19.24
2023-05-18T13:44:00.609Z,19.46
2023-05-18T13:46:37.583Z,19.40
2023-05-18T13:49:12.690Z,19.57
2023-05-18T13:51:46.088Z,19.21
2023-05-18T13:54:19.423Z,19.33
2023-05-18T13:56:54.469Z,19.36
2023-05-18T13:59:27.949Z,19.28
2023-05-18T14:02:01.302Z,19.42
2023-05-18T14:04:34.579Z,19.25
2023-05-18T14:07:09.453Z,19.24
2023-05-18T14:09:42.785Z,19.25
2023-05-18T14:12:17.214Z,19.49
2023-05-18T14:14:50.447Z,19.66
2023-05-18T14:17:23.819Z,19.24
2023-05-18T14:19:57.661Z,19.65
2023-05-18T14:22:31.410Z,19.82
2023-05-18T14:25:04.663Z,20.04
2023-05-18T14:27:38.107Z,20.28
2023-05-18T14:30:13.139Z,20.02
2023-05-18T14:32:46.504Z,19.69
2023-05-18T14:35:20.110Z,19.89
2023-05-18T14:37:53.430Z,19.96
2023-05-18T14:40:27.309Z,19.99
2023-05-18T14:43:00.659Z,20.09
2023-05-18T14:45:33.966Z,20.09
2023-05-18T14:48:07.333Z,19.81
2023-05-18T14:50:40.912Z,19.84
2023-05-18T14:53:14.337Z,19.91
2023-05-18T14:55:47.643Z,19.98
2023-05-18T14:58:20.968Z,19.79
2023-05-18T15:00:54.217Z,19.92
2023-05-18T15:03:28.419Z,19.96
2023-05-18T15:06:01.959Z,19.72
2023-05-18T15:08:35.537Z,20.11
2023-05-18T15:11:08.949Z,20.20
2023-05-18T15:13:42.537Z,20.16
2023-05-18T15:16:19.447Z,20.22
2023-05-18T15:18:53.061Z,20.13
2023-05-18T15:21:26.395Z,20.46
2023-05-18T15:23:59.687Z,20.57
2023-05-18T15:26:32.950Z,20.07
2023-05-18T15:29:06.374Z,19.99
2023-05-18T15:31:39.963Z,20.24
2023-05-18T15:34:13.353Z,20.45
2023-05-18T15:36:47.153Z,20.42
2023-05-18T15:39:20.743Z,20.51
2023-05-18T15:41:53.811Z,20.16
2023-05-18T15:44:29.431Z,19.66
2023-05-18T15:47:03.712Z,19.74
2023-05-18T15:49:36.988Z,19.77
2023-05-18T15:52:12.267Z,19.62
2023-05-18T15:54:46.135Z,19.46
2023-05-18T15:57:19.115Z,19.31
2023-05-18T15:59:52.461Z,19.49
2023-05-18T16:02:26.106Z,19.44
2023-05-18T16:04:59.538Z,19.50
2023-05-18T16:07:32.830Z,19.56
2023-05-18T16:10:06.280Z,19.30
2023-05-18T16:12:39.284Z,19.41
2023-05-18T16:15:14.559Z,19.14
2023-05-18T16:17:47.977Z,18.88
2023-05-18T16:20:21.403Z,18.84
2023-05-18T16:22:54.664Z,19.12
2023-05-18T16:25:29.202Z,19.32
2023-05-18T16:28:02.195Z,19.43
2023-05-18T16:30:35.614Z,19.38
2023-05-18T16:33:09.060Z,19.40
2023-05-18T16:35:43.304Z,19.42
2023-05-18T16:38:16.769Z,19.50
2023-05-18T16:40:50.064Z,19.55
2023-05-18T16:43:23.313Z,19.46
2023-05-18T16:45:56.724Z,19.43
2023-05-18T16:48:30.346Z,19.41
2023-05-18T16:51:06.580Z,19.37
2023-05-18T16:53:40.218Z,19.35
2023-05-18T16:56:14.072Z,19.52
2023-05-18T16:58:52.076Z,19.41
2023-05-18T17:01:28.537Z,19.52
2023-05-18T17:04:02.744Z,19.49
2023-05-18T17:06:36.513Z,19.48
2023-05-18T17:09:09.928Z,19.51
2023-05-18T17:11:43.328Z,19.39
2023-05-18T17:14:16.568Z,19.38
2023-05-18T17:16:49.872Z,19.39
2023-05-18T17:19:23.314Z,19.32
2023-05-18T17:21:57.024Z,19.20
2023-05-18T17:24:30.455Z,19.18
2023-05-18T17:27:03.915Z,19.01
2023-05-18T17:29:37.019Z,18.94
2023-05-18T17:32:11.412Z,18.86
2023-05-18T17:34:44.749Z,18.73
2023-05-18T17:37:19.236Z,18.73
2023-05-18T17:39:52.609Z,18.56
2023-05-18T17:42:26.084Z,18.58
2023-05-18T17:44:59.357Z,18.59
2023-05-18T17:47:32.892Z,18.29
2023-05-18T17:50:06.265Z,18.24
2023-05-18T17:52:39.653Z,18.21
2023-05-18T17:55:15.088Z,18.29
2023-05-18T17:57:48.863Z,18.25
2023-05-18T18:00:24.396Z,18.21
2023-05-18T18:02:57.689Z,18.13
2023-05-18T18:05:33.209Z,18.05
2023-05-18T18:08:08.060Z,17.84
2023-05-18T18:10:41.789Z,17.88
2023-05-18T18:13:15.360Z,17.80
2023-05-18T18:15:48.469Z,17.77
2023-05-18T18:18:22.764Z,17.77
2023-05-18T18:20:56.252Z,17.67
2023-05-18T18:23:29.550Z,17.59
2023-05-18T18:26:03.887Z,17.64
2023-05-18T18:28:37.856Z,17.41
2023-05-18T18:31:11.043Z,17.43
2023-05-18T18:33:47.551Z,17.32
2023-05-18T18:36:21.729Z,17.27
2023-05-18T18:38:55.050Z,17.29
2023-05-18T18:41:28.308Z,17.09
2023-05-18T18:44:01.605Z,17.12
2023-05-18T18:46:35.937Z,16.98
2023-05-18T18:49:09.713Z,16.99
2023-05-18T18:51:43.603Z,16.94
2023-05-18T18:54:16.945Z,16.86
2023-05-18T18:56:50.220Z,16.93
2023-05-18T18:59:23.596Z,16.85
2023-05-18T19:01:56.946Z,16.66
2023-05-18T19:04:30.725Z,16.55
2023-05-18T19:07:04.747Z,16.47
2023-05-18T19:09:38.239Z,16.32
2023-05-18T19:12:13.417Z,16.18
2023-05-18T19:14:46.723Z,16.15
2023-05-18T19:17:19.819Z,16.06
2023-05-18T19:19:53.366Z,15.98
2023-05-18T19:22:27.034Z,15.90
2023-05-18T19:25:00.334Z,15.90
2023-05-18T19:27:33.650Z,15.75
2023-05-18T19:30:08.381Z,15.67
2023-05-18T19:32:41.583Z,15.55
2023-05-18T19:35:15.343Z,15.55
2023-05-18T19:37:49.420Z,15.44
2023-05-18T19:40:27.107Z,15.42
2023-05-18T19:43:01.551Z,15.30
2023-05-18T19:45:35.730Z,15.17
2023-05-18T19:48:09.098Z,15.10
2023-05-18T19:50:42.708Z,15.10
2023-05-18T19:53:16.097Z,15.06
2023-05-18T19:55:49.562Z,15.04
2023-05-18T19:58:23.027Z,14.99
2023-05-18T20:00:58.945Z,14.97
2023-05-18T20:03:32.250Z,14.85
2023-05-18T20:06:06.831Z,14.85
2023-05-18T20:08:40.517Z,14.77
2023-05-18T20:11:14.757Z,14.70
2023-05-18T20:13:48.388Z,14.76
2023-05-18T20:16:21.812Z,14.68
2023-05-18T20:18:55.129Z,14.60
2023-05-18T20:21:28.436Z,14.53
2023-05-18T20:24:01.708Z,14.56
2023-05-18T20:26:35.054Z,14.57
2023-05-18T20:29:08.515Z,14.40
2023-05-18T20:31:44.522Z,14.35
2023-05-18T20:34:18.453Z,14.37
2023-05-18T20:36:51.734Z,14.22
2023-05-18T20:39:26.011Z,14.15
2023-05-18T20:42:00.289Z,14.10
2023-05-18T20:44:34.962Z,14.03
2023-05-18T20:47:08.642Z,13.96
2023-05-18T20:49:41.745Z,14.02
2023-05-18T20:52:15.202Z,13.93
2023-05-18T20:54:48.895Z,13.83
2023-05-18T20:57:22.927Z,13.73
2023-05-18T20:59:56.341Z,13.70
2023-05-18T21:02:29.827Z,13.60
2023-05-18T21:05:04.391Z,13.51
2023-05-18T21:07:42.601Z,13.42
2023-05-18T21:10:16.318Z,13.44
2023-05-18T21:12:49.649Z,13.40
2023-05-18T21:15:22.928Z,13.46
2023-05-18T21:17:56.485Z,13.36
2023-05-18T21:20:30.880Z,13.35
2023-05-18T21:23:04.725Z,13.16
2023-05-18T21:25:38.162Z,13.08
2023-05-18T21:28:12.582Z,13.05
2023-05-18T21:30:46.549Z,12.97
2023-05-18T21:33:19.895Z,13.08
2023-05-18T21:35:53.232Z,13.02
2023-05-18T21:38:26.747Z,12.85
2023-05-18T21:41:01.119Z,12.93
2023-05-18T21:43:34.523Z,12.90
2023-05-18T21:46:09.832Z,12.82
2023-05-18T21:48:43.394Z,12.77
2023-05-18T21:51:16.375Z,12.77
2023-05-18T21:53:49.759Z,12.71
2023-05-18T21:56:23.961Z,12.70
2023-05-18T21:58:58.875Z,12.58
2023-05-18T22:01:32.629Z,12.60
2023-05-18T22:04:05.937Z,12.45
2023-05-18T22:06:38.969Z,12.31
2023-05-18T22:09:12.290Z,12.35
2023-05-18T22:11:45.634Z,12.32
2023-05-18T22:14:19.022Z,12.31
2023-05-18T22:16:52.280Z,12.20
2023-05-18T22:19:26.478Z,12.12
2023-05-18T22:22:01.330Z,12.02
2023-05-18T22:24:34.930Z,11.94
2023-05-18T22:27:08.335Z,11.91
2023-05-18T22:29:42.170Z,11.79
2023-05-18T22:32:15.689Z,11.74
2023-05-18T22:34:48.962Z,11.80
2023-05-18T22:37:21.934Z,11.80
2023-05-18T22:39:55.294Z,11.82
2023-05-18T22:42:28.653Z,11.77
2023-05-18T22:45:02.292Z,11.73
2023-05-18T22:47:36.110Z,11.65
2023-05-18T22:50:12.206Z,11.58
2023-05-18T22:52:45.845Z,11.57
2023-05-18T22:55:19.590Z,11.56
2023-05-18T22:57:52.907Z,11.44
2023-05-18T23:00:27.193Z,11.46
2023-05-18T23:03:00.986Z,11.35
2023-05-18T23:05:36.194Z,11.36
2023-05-18T23:08:09.563Z,11.32
2023-05-18T23:10:44.473Z,11.27
2023-05-18T23:13:19.571Z,11.21
2023-05-18T23:15:56.098Z,11.24
2023-05-18T23:18:29.772Z,11.23
2023-05-18T23:21:03.127Z,11.27
2023-05-18T23:23:36.744Z,11.25
2023-05-18T23:26:10.789Z,11.23
2023-05-18T23:28:44.037Z,11.17
2023-05-18T23:31:17.528Z,11.17
2023-05-18T23:33:53.920Z,11.15
2023-05-18T23:36:31.002Z,11.04
2023-05-18T23:39:04.693Z,11.05
2023-05-18T23:41:40.268Z,11.05
2023-05-18T23:44:15.013Z,10.92
2023-05-18T23:46:50.496Z,11.00
2023-05-18T23:49:26.439Z,10.99
2023-05-18T23:52:04.422Z,11.01
2023-05-18T23:54:39.619Z,11.07
2023-05-18T23:57:16.091Z,10.97
2023-05-18T23:59:51.026Z,11.01
